createdAt,value
2019-01-19T00:00:33.679Z,94.17
2019-01-19T00:03:49.072Z,94.20
2019-01-19T00:07:16.164Z,94.35
2019-01-19T00:10:39.959Z,94.32
2019-01-19T00:14:12.398Z,94.18
2019-01-19T00:17:51.144Z,94.13
2019-01-19T00:21:32.754Z,94.13
2019-01-19T00:24:58.457Z,94.11
2019-01-19T00:28:25.206Z,94.05
2019-01-19T00:31:44.100Z,94.02
2019-01-19T00:35:18.445Z,94.05
2019-01-19T00:39:31.084Z,94.08
2019-01-19T00:43:05.630Z,94.16
2019-01-19T00:46:37.116Z,94.21
2019-01-19T00:49:53.005Z,94.16
2019-01-19T00:53:10.626Z,94.12
2019-01-19T00:56:43.439Z,94.13
2019-01-19T00:59:53.108Z,94.17
2019-01-19T01:03:11.699Z,94.24
2019-01-19T01:06:55.507Z,94.24
2019-01-19T01:10:32.493Z,94.21
2019-01-19T01:13:58.778Z,94.28
2019-01-19T01:17:19.079Z,94.38
2019-01-19T01:20:44.723Z,94.47
2019-01-19T01:24:13.365Z,94.51
2019-01-19T01:27:54.597Z,94.58
2019-01-19T01:31:26.130Z,94.64
2019-01-19T01:35:09.975Z,94.72
2019-01-19T01:39:18.305Z,94.71
2019-01-19T01:42:43.940Z,94.69
2019-01-19T01:46:17.243Z,94.61
2019-01-19T01:49:39.466Z,94.56
2019-01-19T01:53:08.577Z,94.62
2019-01-19T01:56:15.121Z,94.73
2019-01-19T02:00:14.288Z,94.77
2019-01-19T02:04:07.560Z,94.77
2019-01-19T02:07:48.683Z,94.75
2019-01-19T02:11:15.352Z,94.69
2019-01-19T02:14:47.341Z,94.65
2019-01-19T02:18:15.007Z,94.77
2019-01-19T02:22:04.068Z,94.82
2019-01-19T02:26:04.691Z,94.90
2019-01-19T02:29:53.075Z,94.80
2019-01-19T02:33:26.412Z,94.66
2019-01-19T02:36:50.346Z,94.62
2019-01-19T02:40:25.785Z,94.70
2019-01-19T02:43:53.646Z,94.66
2019-01-19T02:47:24.899Z,94.59
2019-01-19T02:50:43.803Z,94.53
2019-01-19T02:54:13.603Z,94.49
2019-01-19T02:57:56.606Z,94.54
2019-01-19T03:01:44.391Z,94.53
2019-01-19T03:05:26.448Z,94.55
2019-01-19T03:09:29.982Z,94.49
2019-01-19T03:13:02.781Z,94.42
2019-01-19T03:16:52.800Z,94.48
2019-01-19T03:21:05.468Z,94.46
2019-01-19T03:25:04.978Z,94.35
2019-01-19T03:28:41.791Z,94.34
2019-01-19T03:32:35.847Z,94.42
2019-01-19T03:36:04.333Z,94.44
2019-01-19T03:39:32.435Z,94.48
2019-01-19T03:43:13.586Z,94.45
2019-01-19T03:46:44.138Z,94.44
2019-01-19T03:50:10.299Z,94.45
2019-01-19T03:53:54.510Z,94.48
2019-01-19T03:57:40.067Z,94.63
2019-01-19T04:01:01.545Z,94.73
2019-01-19T04:04:33.669Z,94.74
2019-01-19T04:07:51.307Z,94.75
2019-01-19T04:11:19.915Z,94.85
2019-01-19T04:14:39.961Z,94.92
2019-01-19T04:18:12.408Z,94.90
2019-01-19T04:21:43.079Z,94.95
2019-01-19T04:25:25.336Z,94.91
2019-01-19T04:28:29.526Z,94.87
2019-01-19T04:31:33.635Z,94.84
2019-01-19T04:34:37.667Z,94.85
2019-01-19T04:37:41.623Z,94.82
2019-01-19T04:40:45.615Z,95.00
2019-01-19T04:43:49.470Z,94.96
2019-01-19T04:46:53.405Z,95.06
2019-01-19T04:49:57.428Z,95.07
2019-01-19T04:53:03.582Z,95.06
2019-01-19T04:56:07.630Z,95.05
2019-01-19T04:59:11.538Z,95.07
2019-01-19T05:02:15.483Z,95.05
2019-01-19T05:05:19.444Z,95.00
2019-01-19T05:08:23.362Z,95.00
2019-01-19T05:11:27.221Z,94.96
2019-01-19T05:14:31.084Z,94.96
2019-01-19T05:17:34.924Z,95.02
2019-01-19T05:20:38.877Z,95.02
2019-01-19T05:23:42.890Z,95.03
2019-01-19T05:26:46.743Z,94.98
2019-01-19T05:29:50.601Z,95.03
2019-01-19T05:32:54.736Z,95.05
2019-01-19T05:35:58.662Z,95.04
2019-01-19T05:39:02.762Z,95.09
2019-01-19T05:42:06.789Z,95.07
2019-01-19T05:45:12.984Z,95.06
2019-01-19T05:48:16.864Z,95.13
2019-01-19T05:51:20.875Z,95.17
2019-01-19T05:54:24.724Z,95.25
2019-01-19T05:57:28.585Z,95.30
2019-01-19T06:00:34.852Z,95.26
2019-01-19T06:03:41.643Z,95.15
2019-01-19T06:06:46.887Z,95.19
2019-01-19T06:09:51.423Z,95.22
2019-01-19T06:12:55.456Z,95.20
2019-01-19T06:16:01.111Z,95.15
2019-01-19T06:19:08.137Z,95.09
2019-01-19T06:22:12.430Z,95.06
2019-01-19T06:25:16.480Z,95.13
2019-01-19T06:28:20.423Z,95.19
2019-01-19T06:31:24.269Z,95.18
2019-01-19T06:34:28.585Z,95.20
2019-01-19T06:37:32.519Z,95.29
2019-01-19T06:40:36.523Z,95.31
2019-01-19T06:43:40.489Z,95.32
2019-01-19T06:46:44.486Z,95.41
2019-01-19T06:49:48.387Z,95.41
2019-01-19T06:52:52.428Z,95.53
2019-01-19T06:55:56.333Z,95.91
2019-01-19T06:59:00.597Z,95.98
2019-01-19T07:02:04.557Z,96.07
2019-01-19T07:05:08.689Z,96.12
2019-01-19T07:08:14.675Z,96.23
2019-01-19T07:11:22.282Z,96.23
2019-01-19T07:14:26.161Z,96.28
2019-01-19T07:17:30.201Z,96.43
2019-01-19T07:20:34.090Z,96.47
2019-01-19T07:23:38.029Z,96.70
2019-01-19T07:26:41.999Z,96.75
2019-01-19T07:29:46.443Z,96.90
2019-01-19T07:32:50.428Z,96.86
2019-01-19T07:35:54.446Z,96.88
2019-01-19T07:38:58.308Z,96.93
2019-01-19T07:42:02.275Z,96.95
2019-01-19T07:45:07.051Z,96.96
2019-01-19T07:48:11.495Z,96.94
2019-01-19T07:51:15.506Z,96.95
2019-01-19T07:54:19.510Z,96.90
2019-01-19T07:57:23.431Z,96.82
2019-01-19T08:00:29.583Z,96.77
2019-01-19T08:03:33.908Z,96.73
2019-01-19T08:06:37.843Z,96.63
2019-01-19T08:09:41.776Z,96.53
2019-01-19T08:12:45.834Z,96.48
2019-01-19T08:15:49.762Z,96.37
2019-01-19T08:18:53.634Z,96.34
2019-01-19T08:21:57.577Z,96.37
2019-01-19T08:25:01.559Z,96.32
2019-01-19T08:28:07.064Z,96.12
2019-01-19T08:31:11.098Z,95.90
2019-01-19T08:34:15.028Z,95.88
2019-01-19T08:37:24.424Z,95.94
2019-01-19T08:40:27.101Z,96.02
2019-01-19T08:43:43.034Z,95.76
2019-01-19T08:46:46.915Z,95.57
2019-01-19T08:49:50.842Z,95.60
2019-01-19T08:52:57.181Z,95.68
2019-01-19T08:56:01.115Z,95.84
2019-01-19T08:59:05.322Z,95.96
2019-01-19T09:02:09.545Z,95.96
2019-01-19T09:05:13.630Z,96.02
2019-01-19T09:08:17.666Z,95.89
2019-01-19T09:11:21.631Z,95.75
2019-01-19T09:14:25.603Z,95.44
2019-01-19T09:17:29.557Z,95.40
2019-01-19T09:20:33.768Z,95.43
2019-01-19T09:23:54.214Z,95.51
2019-01-19T09:26:58.174Z,95.51
2019-01-19T09:30:02.111Z,95.43
2019-01-19T09:33:06.762Z,95.51
2019-01-19T09:36:10.769Z,95.62
2019-01-19T09:39:14.715Z,95.49
2019-01-19T09:42:18.658Z,95.51
2019-01-19T09:45:22.692Z,95.27
2019-01-19T09:48:26.677Z,95.32
2019-01-19T09:51:30.677Z,95.28
2019-01-19T09:54:34.635Z,95.23
2019-01-19T09:57:38.708Z,95.14
2019-01-19T10:00:45.771Z,95.04
2019-01-19T10:03:50.587Z,95.16
2019-01-19T10:06:54.621Z,94.91
2019-01-19T10:09:58.591Z,94.50
2019-01-19T10:13:02.599Z,94.65
2019-01-19T10:16:06.737Z,94.47
2019-01-19T10:19:10.704Z,94.45
2019-01-19T10:22:14.628Z,94.45
2019-01-19T10:25:18.869Z,94.47
2019-01-19T10:28:25.917Z,94.40
2019-01-19T10:31:29.853Z,94.41
2019-01-19T10:34:33.900Z,94.47
2019-01-19T10:37:37.765Z,94.49
2019-01-19T10:40:41.781Z,94.38
2019-01-19T10:43:45.662Z,94.06
2019-01-19T10:46:49.899Z,93.94
2019-01-19T10:49:53.888Z,94.13
2019-01-19T10:52:57.886Z,94.09
2019-01-19T10:56:01.844Z,93.88
2019-01-19T10:59:07.782Z,93.88
2019-01-19T11:02:11.687Z,93.45
2019-01-19T11:05:15.795Z,93.24
2019-01-19T11:08:19.729Z,93.17
2019-01-19T11:11:23.822Z,93.04
2019-01-19T11:14:27.700Z,92.87
2019-01-19T11:17:31.562Z,92.79
2019-01-19T11:20:35.577Z,92.37
2019-01-19T11:23:40.045Z,91.80
2019-01-19T11:26:44.100Z,91.41
2019-01-19T11:29:47.970Z,91.23
2019-01-19T11:32:52.068Z,91.09
2019-01-19T11:35:56.016Z,90.32
2019-01-19T11:38:59.976Z,90.15
2019-01-19T11:42:06.264Z,90.02
2019-01-19T11:45:12.960Z,89.86
2019-01-19T11:48:16.841Z,89.58
2019-01-19T11:51:22.724Z,89.29
2019-01-19T11:54:26.638Z,88.97
2019-01-19T11:57:30.695Z,88.93
2019-01-19T12:00:36.838Z,88.67
2019-01-19T12:03:40.830Z,86.64
2019-01-19T12:06:44.844Z,86.24
2019-01-19T12:09:49.015Z,86.33
2019-01-19T12:12:53.093Z,85.94
2019-01-19T12:15:57.137Z,85.51
2019-01-19T12:19:01.012Z,84.92
2019-01-19T12:22:05.079Z,84.69
2019-01-19T12:25:11.298Z,83.86
2019-01-19T12:28:15.261Z,83.43
2019-01-19T12:31:19.278Z,82.31
2019-01-19T12:34:23.312Z,82.11
2019-01-19T12:37:27.328Z,80.29
2019-01-19T12:40:31.557Z,78.73
2019-01-19T12:43:35.597Z,78.48
2019-01-19T12:46:39.633Z,78.79
2019-01-19T12:49:43.641Z,77.94
2019-01-19T12:52:47.697Z,76.83
2019-01-19T12:55:51.655Z,76.09
2019-01-19T12:58:55.579Z,76.13
2019-01-19T13:01:59.524Z,74.67
2019-01-19T13:05:03.771Z,74.65
2019-01-19T13:08:09.619Z,74.91
2019-01-19T13:11:44.832Z,74.58
2019-01-19T13:14:57.000Z,74.36
2019-01-19T13:18:38.976Z,74.22
2019-01-19T13:22:30.270Z,74.73
2019-01-19T13:26:27.537Z,74.56
2019-01-19T13:29:51.173Z,74.83
2019-01-19T13:33:03.723Z,75.31
2019-01-19T13:37:03.381Z,75.62
2019-01-19T13:40:33.205Z,74.64
2019-01-19T13:44:08.376Z,74.76
2019-01-19T13:47:50.087Z,74.71
2019-01-19T13:51:21.875Z,74.85
2019-01-19T13:55:04.953Z,74.84
2019-01-19T13:58:21.378Z,75.24
2019-01-19T14:02:11.403Z,75.66
2019-01-19T14:05:50.488Z,75.51
2019-01-19T14:09:37.926Z,75.28
2019-01-19T14:13:18.185Z,75.55
2019-01-19T14:16:50.342Z,75.62
2019-01-19T14:20:25.444Z,75.48
2019-01-19T14:24:22.828Z,75.49
2019-01-19T14:28:12.660Z,76.36
2019-01-19T14:31:40.863Z,76.95
2019-01-19T14:35:06.004Z,76.98
2019-01-19T14:38:56.690Z,76.79
2019-01-19T14:42:33.494Z,77.05
2019-01-19T14:46:01.302Z,77.50
2019-01-19T14:49:34.186Z,77.39
2019-01-19T14:53:04.042Z,77.56
2019-01-19T14:56:49.399Z,78.05
2019-01-19T15:00:48.504Z,78.37
2019-01-19T15:04:45.677Z,78.72
2019-01-19T15:08:14.638Z,79.23
2019-01-19T15:12:05.242Z,79.42
2019-01-19T15:15:50.550Z,79.52
2019-01-19T15:19:47.881Z,79.67
2019-01-19T15:23:15.958Z,79.96
2019-01-19T15:27:16.088Z,80.34
2019-01-19T15:30:52.032Z,80.57
2019-01-19T15:34:39.987Z,80.95
2019-01-19T15:38:10.575Z,81.34
2019-01-19T15:41:51.571Z,81.70
2019-01-19T15:45:51.732Z,82.11
2019-01-19T15:49:23.345Z,82.48
2019-01-19T15:52:45.152Z,84.80
2019-01-19T15:56:37.509Z,84.03
2019-01-19T16:00:20.433Z,83.91
2019-01-19T16:04:08.916Z,84.17
2019-01-19T16:08:01.804Z,84.24
2019-01-19T16:11:30.799Z,84.43
2019-01-19T16:15:15.284Z,84.62
2019-01-19T16:18:50.138Z,84.96
2019-01-19T16:22:22.303Z,85.13
2019-01-19T16:25:59.609Z,85.47
2019-01-19T16:29:43.718Z,85.71
2019-01-19T16:33:26.100Z,86.09
2019-01-19T16:36:57.291Z,86.49
2019-01-19T16:40:44.466Z,86.75
2019-01-19T16:44:50.775Z,86.78
2019-01-19T16:48:23.004Z,86.87
2019-01-19T16:51:53.286Z,87.05
2019-01-19T16:55:28.219Z,87.35
2019-01-19T16:59:01.048Z,87.64
2019-01-19T17:02:33.762Z,87.85
2019-01-19T17:06:19.059Z,87.95
2019-01-19T17:09:44.646Z,87.92
2019-01-19T17:13:27.465Z,88.00
2019-01-19T17:16:58.827Z,88.07
2019-01-19T17:20:49.437Z,88.04
2019-01-19T17:24:34.420Z,88.07
2019-01-19T17:28:16.312Z,88.16
2019-01-19T17:31:50.871Z,88.21
2019-01-19T17:35:39.043Z,88.20
2019-01-19T17:39:16.783Z,88.24
2019-01-19T17:42:56.883Z,88.25
2019-01-19T17:46:34.908Z,88.29
2019-01-19T17:50:24.221Z,88.38
2019-01-19T17:54:00.032Z,88.32
2019-01-19T17:57:18.273Z,88.35
2019-01-19T18:01:18.526Z,88.37
2019-01-19T18:04:41.270Z,88.46
2019-01-19T18:08:10.224Z,88.61
2019-01-19T18:11:52.044Z,88.78
2019-01-19T18:15:38.978Z,88.89
2019-01-19T18:19:17.278Z,88.94
2019-01-19T18:22:52.547Z,89.00
2019-01-19T18:26:53.023Z,89.03
2019-01-19T18:30:24.442Z,88.93
2019-01-19T18:33:54.161Z,88.86
2019-01-19T18:38:03.723Z,88.77
2019-01-19T18:41:39.746Z,88.78
2019-01-19T18:45:10.178Z,88.79
2019-01-19T18:48:43.484Z,88.84
2019-01-19T18:52:22.468Z,88.79
2019-01-19T18:56:05.657Z,88.83
2019-01-19T18:59:51.253Z,88.85
2019-01-19T19:03:11.971Z,88.69
2019-01-19T19:07:06.461Z,88.64
2019-01-19T19:10:54.456Z,88.55
2019-01-19T19:14:29.190Z,88.51
2019-01-19T19:17:48.376Z,88.57
2019-01-19T19:21:46.220Z,88.63
2019-01-19T19:25:15.994Z,88.53
2019-01-19T19:28:48.085Z,88.67
2019-01-19T19:32:03.228Z,88.84
2019-01-19T19:35:33.445Z,89.00
2019-01-19T19:39:21.913Z,89.05
2019-01-19T19:43:22.374Z,89.15
2019-01-19T19:47:04.649Z,89.37
2019-01-19T19:50:52.107Z,89.44
2019-01-19T19:54:06.563Z,89.43
2019-01-19T19:57:13.197Z,89.32
2019-01-19T20:00:17.374Z,89.54
2019-01-19T20:03:21.363Z,89.73
2019-01-19T20:06:25.774Z,89.74
2019-01-19T20:09:29.985Z,89.81
2019-01-19T20:12:35.553Z,89.92
2019-01-19T20:15:39.522Z,90.05
2019-01-19T20:18:43.585Z,90.12
2019-01-19T20:21:47.644Z,90.13
2019-01-19T20:24:52.786Z,90.12
2019-01-19T20:27:58.248Z,90.13
2019-01-19T20:31:02.156Z,90.06
2019-01-19T20:34:06.156Z,90.05
2019-01-19T20:37:10.198Z,90.07
2019-01-19T20:40:14.193Z,90.08
2019-01-19T20:43:18.066Z,90.04
2019-01-19T20:46:21.983Z,89.95
2019-01-19T20:49:29.695Z,89.96
2019-01-19T20:52:33.845Z,89.89
2019-01-19T20:55:37.888Z,89.73
2019-01-19T20:58:41.884Z,89.59
2019-01-19T21:01:45.863Z,89.50
2019-01-19T21:04:49.851Z,89.43
2019-01-19T21:07:54.329Z,89.36
2019-01-19T21:10:58.414Z,89.20
2019-01-19T21:14:02.368Z,89.03
2019-01-19T21:17:07.021Z,88.97
2019-01-19T21:20:11.931Z,88.88
2019-01-19T21:23:15.807Z,88.87
2019-01-19T21:26:20.167Z,88.82
2019-01-19T21:29:24.196Z,88.62
2019-01-19T21:32:28.387Z,88.57
2019-01-19T21:35:32.419Z,88.61
2019-01-19T21:38:36.438Z,88.50
2019-01-19T21:41:40.694Z,88.55
2019-01-19T21:44:44.651Z,88.40
2019-01-19T21:47:48.685Z,88.48
2019-01-19T21:50:53.854Z,88.54
2019-01-19T21:53:57.855Z,88.52
2019-01-19T21:57:01.800Z,88.46
2019-01-19T22:00:09.362Z,88.28
2019-01-19T22:03:13.493Z,88.06
2019-01-19T22:06:17.485Z,87.97
2019-01-19T22:09:21.427Z,87.97
2019-01-19T22:12:25.352Z,88.02
2019-01-19T22:15:29.305Z,87.92
2019-01-19T22:18:34.871Z,88.08
2019-01-19T22:21:38.933Z,88.24
2019-01-19T22:24:42.799Z,88.35
2019-01-19T22:27:48.297Z,88.43
2019-01-19T22:30:52.264Z,88.60
2019-01-19T22:33:56.275Z,88.79
2019-01-19T22:37:00.306Z,88.93
2019-01-19T22:40:05.313Z,89.04
2019-01-19T22:43:12.104Z,89.05
2019-01-19T22:46:16.071Z,89.03
2019-01-19T22:49:20.121Z,89.04
2019-01-19T22:52:24.107Z,89.02
2019-01-19T22:55:28.031Z,88.92
2019-01-19T22:58:31.916Z,88.84
2019-01-19T23:01:39.853Z,88.89
2019-01-19T23:04:44.450Z,88.59
2019-01-19T23:07:49.309Z,88.58
2019-01-19T23:10:53.247Z,88.53
2019-01-19T23:13:57.265Z,88.49
2019-01-19T23:17:01.281Z,88.52
2019-01-19T23:20:05.967Z,88.48
2019-01-19T23:23:09.985Z,88.43
2019-01-19T23:26:14.194Z,88.38
2019-01-19T23:29:18.178Z,88.31
2019-01-19T23:32:22.140Z,88.21
2019-01-19T23:35:28.910Z,88.04
2019-01-19T23:38:32.913Z,88.01
2019-01-19T23:41:36.938Z,88.01
2019-01-19T23:44:40.954Z,87.98
2019-01-19T23:47:44.902Z,87.94
2019-01-19T23:50:48.834Z,87.86
2019-01-19T23:53:52.770Z,87.78
2019-01-19T23:56:58.276Z,87.73
